sensor_id;sensor_type;location;lat;lon;timestamp;temperature;humidity
51725;DHT22;37801;53.224;6.552;2023-03-23T00:01:19;10.00;99.90
51725;DHT22;37801;53.224;6.552;2023-03-23T00:03:49;10.10;99.90
51725;DHT22;37801;53.224;6.552;2023-03-23T00:06:16;10.10;99.90
51725;DHT22;37801;53.224;6.552;2023-03-23T00:08:44;10.40;99.90
51725;DHT22;37801;53.224;6.552;2023-03-23T00:11:16;10.30;99.90
51725;DHT22;37801;53.224;6.552;2023-03-23T00:13:44;10.00;99.90
51725;DHT22;37801;53.224;6.552;2023-03-23T00:16:12;10.60;99.90
51725;DHT22;37801;53.224;6.552;2023-03-23T00:18:55;10.60;99.90
51725;DHT22;37801;53.224;6.552;2023-03-23T00:21:23;10.00;99.90
51725;DHT22;37801;53.224;6.552;2023-03-23T00:26:31;10.10;99.90
51725;DHT22;37801;53.224;6.552;2023-03-23T00:29:00;10.10;99.90
51725;DHT22;37801;53.224;6.552;2023-03-23T00:31:27;10.40;99.90
51725;DHT22;37801;53.224;6.552;2023-03-23T00:34:02;10.10;99.90
51725;DHT22;37801;53.224;6.552;2023-03-23T00:36:30;10.40;99.90
51725;DHT22;37801;53.224;6.552;2023-03-23T00:38:56;10.40;99.90
51725;DHT22;37801;53.224;6.552;2023-03-23T00:41:27;10.40;99.90
51725;DHT22;37801;53.224;6.552;2023-03-23T00:43:55;10.10;99.90
51725;DHT22;37801;53.224;6.552;2023-03-23T00:46:21;10.40;99.90
51725;DHT22;37801;53.224;6.552;2023-03-23T00:48:48;10.10;99.90
51725;DHT22;37801;53.224;6.552;2023-03-23T00:51:16;10.50;99.90
51725;DHT22;37801;53.224;6.552;2023-03-23T00:53:43;10.40;99.90
51725;DHT22;37801;53.224;6.552;2023-03-23T00:56:09;10.50;99.90
51725;DHT22;37801;53.224;6.552;2023-03-23T00:58:35;10.30;99.90
51725;DHT22;37801;53.224;6.552;2023-03-23T01:01:02;10.10;99.90
51725;DHT22;37801;53.224;6.552;2023-03-23T01:03:28;10.50;99.90
51725;DHT22;37801;53.224;6.552;2023-03-23T01:05:55;10.40;99.90
51725;DHT22;37801;53.224;6.552;2023-03-23T01:08:22;10.40;99.90
51725;DHT22;37801;53.224;6.552;2023-03-23T01:10:49;10.40;99.90
51725;DHT22;37801;53.224;6.552;2023-03-23T01:13:16;10.50;99.90
51725;DHT22;37801;53.224;6.552;2023-03-23T01:15:42;10.40;99.90
51725;DHT22;37801;53.224;6.552;2023-03-23T01:18:09;10.00;99.90
51725;DHT22;37801;53.224;6.552;2023-03-23T01:20:36;10.10;99.90
51725;DHT22;37801;53.224;6.552;2023-03-23T01:23:02;10.00;99.90
51725;DHT22;37801;53.224;6.552;2023-03-23T01:25:30;10.00;99.90
51725;DHT22;37801;53.224;6.552;2023-03-23T01:27:57;9.90;99.90
51725;DHT22;37801;53.224;6.552;2023-03-23T01:30:23;10.10;99.90
51725;DHT22;37801;53.224;6.552;2023-03-23T01:32:50;9.90;99.90
51725;DHT22;37801;53.224;6.552;2023-03-23T01:35:16;10.00;99.90
51725;DHT22;37801;53.224;6.552;2023-03-23T01:37:42;10.10;99.90
51725;DHT22;37801;53.224;6.552;2023-03-23T01:40:09;9.80;99.90
51725;DHT22;37801;53.224;6.552;2023-03-23T01:42:37;10.10;99.90
51725;DHT22;37801;53.224;6.552;2023-03-23T01:47:58;10.10;99.90
51725;DHT22;37801;53.224;6.552;2023-03-23T01:50:26;9.80;99.90
51725;DHT22;37801;53.224;6.552;2023-03-23T01:52:55;9.80;99.90
51725;DHT22;37801;53.224;6.552;2023-03-23T01:55:22;10.10;99.90
51725;DHT22;37801;53.224;6.552;2023-03-23T01:57:50;9.90;99.90
51725;DHT22;37801;53.224;6.552;2023-03-23T02:00:16;10.20;99.90
51725;DHT22;37801;53.224;6.552;2023-03-23T02:02:43;10.00;99.90
51725;DHT22;37801;53.224;6.552;2023-03-23T02:08:18;10.00;99.90
51725;DHT22;37801;53.224;6.552;2023-03-23T02:10:44;10.30;99.90
51725;DHT22;37801;53.224;6.552;2023-03-23T02:13:11;10.20;99.90
51725;DHT22;37801;53.224;6.552;2023-03-23T02:32:24;10.00;99.90
51725;DHT22;37801;53.224;6.552;2023-03-23T02:34:50;10.30;99.90
51725;DHT22;37801;53.224;6.552;2023-03-23T02:37:36;10.30;99.90
51725;DHT22;37801;53.224;6.552;2023-03-23T02:40:14;10.40;99.90
51725;DHT22;37801;53.224;6.552;2023-03-23T02:42:45;10.40;99.90
51725;DHT22;37801;53.224;6.552;2023-03-23T02:45:14;10.00;99.90
51725;DHT22;37801;53.224;6.552;2023-03-23T02:47:41;10.30;99.90
51725;DHT22;37801;53.224;6.552;2023-03-23T02:50:11;10.30;99.90
51725;DHT22;37801;53.224;6.552;2023-03-23T02:52:40;10.00;99.90
51725;DHT22;37801;53.224;6.552;2023-03-23T02:55:08;10.20;99.90
51725;DHT22;37801;53.224;6.552;2023-03-23T02:57:37;10.10;99.90
51725;DHT22;37801;53.224;6.552;2023-03-23T03:00:08;10.10;99.90
51725;DHT22;37801;53.224;6.552;2023-03-23T03:02:45;10.00;99.90
51725;DHT22;37801;53.224;6.552;2023-03-23T03:08:07;10.20;99.90
51725;DHT22;37801;53.224;6.552;2023-03-23T03:16:00;10.40;99.90
51725;DHT22;37801;53.224;6.552;2023-03-23T03:21:09;10.00;99.90
51725;DHT22;37801;53.224;6.552;2023-03-23T03:23:39;10.10;99.90
51725;DHT22;37801;53.224;6.552;2023-03-23T03:26:07;10.00;99.90
51725;DHT22;37801;53.224;6.552;2023-03-23T03:28:35;10.00;99.90
51725;DHT22;37801;53.224;6.552;2023-03-23T03:31:03;10.20;99.90
51725;DHT22;37801;53.224;6.552;2023-03-23T03:33:30;10.10;99.90
51725;DHT22;37801;53.224;6.552;2023-03-23T03:36:02;10.30;99.90
51725;DHT22;37801;53.224;6.552;2023-03-23T03:38:28;10.00;99.90
51725;DHT22;37801;53.224;6.552;2023-03-23T03:40:55;10.00;99.90
51725;DHT22;37801;53.224;6.552;2023-03-23T03:43:21;10.10;99.90
51725;DHT22;37801;53.224;6.552;2023-03-23T03:45:47;10.30;99.90
51725;DHT22;37801;53.224;6.552;2023-03-23T03:48:13;10.10;99.90
51725;DHT22;37801;53.224;6.552;2023-03-23T03:50:38;10.30;99.90
51725;DHT22;37801;53.224;6.552;2023-03-23T03:53:05;10.00;99.90
51725;DHT22;37801;53.224;6.552;2023-03-23T03:55:32;10.00;99.90
51725;DHT22;37801;53.224;6.552;2023-03-23T03:58:04;10.30;99.90
51725;DHT22;37801;53.224;6.552;2023-03-23T04:00:30;10.30;99.90
51725;DHT22;37801;53.224;6.552;2023-03-23T04:02:56;10.00;99.90
51725;DHT22;37801;53.224;6.552;2023-03-23T04:05:22;10.30;99.90
51725;DHT22;37801;53.224;6.552;2023-03-23T04:07:48;10.10;99.90
51725;DHT22;37801;53.224;6.552;2023-03-23T04:10:17;10.20;99.90
51725;DHT22;37801;53.224;6.552;2023-03-23T04:12:45;10.20;99.90
51725;DHT22;37801;53.224;6.552;2023-03-23T04:15:11;9.90;99.90
51725;DHT22;37801;53.224;6.552;2023-03-23T04:17:37;10.10;99.90
51725;DHT22;37801;53.224;6.552;2023-03-23T04:20:04;10.20;99.90
51725;DHT22;37801;53.224;6.552;2023-03-23T04:22:39;10.10;99.90
51725;DHT22;37801;53.224;6.552;2023-03-23T04:25:05;9.80;99.90
51725;DHT22;37801;53.224;6.552;2023-03-23T04:27:33;9.90;99.90
51725;DHT22;37801;53.224;6.552;2023-03-23T04:29:59;9.90;99.90
51725;DHT22;37801;53.224;6.552;2023-03-23T04:32:25;9.90;99.90
51725;DHT22;37801;53.224;6.552;2023-03-23T04:34:55;10.00;99.90
51725;DHT22;37801;53.224;6.552;2023-03-23T04:37:24;9.80;99.90
51725;DHT22;37801;53.224;6.552;2023-03-23T04:39:57;9.80;99.90
51725;DHT22;37801;53.224;6.552;2023-03-23T04:42:30;10.10;99.90
51725;DHT22;37801;53.224;6.552;2023-03-23T04:44:57;9.70;99.90
51725;DHT22;37801;53.224;6.552;2023-03-23T04:47:25;9.70;99.90
51725;DHT22;37801;53.224;6.552;2023-03-23T04:49:56;9.70;99.90
51725;DHT22;37801;53.224;6.552;2023-03-23T04:52:24;9.70;99.90
51725;DHT22;37801;53.224;6.552;2023-03-23T04:54:52;9.80;99.90
51725;DHT22;37801;53.224;6.552;2023-03-23T04:57:18;9.80;99.90
51725;DHT22;37801;53.224;6.552;2023-03-23T04:59:44;9.80;99.90
51725;DHT22;37801;53.224;6.552;2023-03-23T05:02:10;9.90;99.90
51725;DHT22;37801;53.224;6.552;2023-03-23T05:04:36;9.80;99.90
51725;DHT22;37801;53.224;6.552;2023-03-23T05:07:03;9.60;99.90
51725;DHT22;37801;53.224;6.552;2023-03-23T05:09:29;9.90;99.90
51725;DHT22;37801;53.224;6.552;2023-03-23T05:11:55;9.80;99.90
51725;DHT22;37801;53.224;6.552;2023-03-23T05:14:21;9.50;99.90
51725;DHT22;37801;53.224;6.552;2023-03-23T05:16:47;9.50;99.90
51725;DHT22;37801;53.224;6.552;2023-03-23T05:19:14;9.60;99.90
51725;DHT22;37801;53.224;6.552;2023-03-23T05:21:40;9.80;99.90
51725;DHT22;37801;53.224;6.552;2023-03-23T05:24:07;9.80;99.90
51725;DHT22;37801;53.224;6.552;2023-03-23T05:26:33;9.90;99.90
51725;DHT22;37801;53.224;6.552;2023-03-23T05:28:58;9.60;99.90
51725;DHT22;37801;53.224;6.552;2023-03-23T05:31:24;9.60;99.90
51725;DHT22;37801;53.224;6.552;2023-03-23T05:33:51;9.60;99.90
51725;DHT22;37801;53.224;6.552;2023-03-23T05:36:17;9.70;99.90
51725;DHT22;37801;53.224;6.552;2023-03-23T05:38:42;10.00;99.90
51725;DHT22;37801;53.224;6.552;2023-03-23T05:41:11;9.70;99.90
51725;DHT22;37801;53.224;6.552;2023-03-23T05:43:37;9.80;99.90
51725;DHT22;37801;53.224;6.552;2023-03-23T05:46:03;9.70;99.90
51725;DHT22;37801;53.224;6.552;2023-03-23T05:48:29;9.70;99.90
51725;DHT22;37801;53.224;6.552;2023-03-23T05:50:55;9.70;99.90
51725;DHT22;37801;53.224;6.552;2023-03-23T05:53:22;9.70;99.90
51725;DHT22;37801;53.224;6.552;2023-03-23T05:55:48;9.60;99.90
51725;DHT22;37801;53.224;6.552;2023-03-23T05:58:14;9.60;99.90
51725;DHT22;37801;53.224;6.552;2023-03-23T06:00:40;9.60;99.90
51725;DHT22;37801;53.224;6.552;2023-03-23T06:03:06;9.80;99.90
51725;DHT22;37801;53.224;6.552;2023-03-23T06:05:31;9.80;99.90
51725;DHT22;37801;53.224;6.552;2023-03-23T06:07:58;9.70;99.90
51725;DHT22;37801;53.224;6.552;2023-03-23T06:10:24;9.60;99.90
51725;DHT22;37801;53.224;6.552;2023-03-23T06:12:51;9.70;99.90
51725;DHT22;37801;53.224;6.552;2023-03-23T06:15:17;9.70;99.90
51725;DHT22;37801;53.224;6.552;2023-03-23T06:17:43;9.80;99.90
51725;DHT22;37801;53.224;6.552;2023-03-23T06:20:09;9.70;99.90
51725;DHT22;37801;53.224;6.552;2023-03-23T06:22:40;9.60;99.90
51725;DHT22;37801;53.224;6.552;2023-03-23T06:25:06;9.70;99.90
51725;DHT22;37801;53.224;6.552;2023-03-23T06:27:32;9.90;99.90
51725;DHT22;37801;53.224;6.552;2023-03-23T06:29:58;10.00;99.90
51725;DHT22;37801;53.224;6.552;2023-03-23T06:32:25;9.70;99.90
51725;DHT22;37801;53.224;6.552;2023-03-23T06:34:51;10.00;99.90
51725;DHT22;37801;53.224;6.552;2023-03-23T06:37:17;10.00;99.90
51725;DHT22;37801;53.224;6.552;2023-03-23T06:39:43;9.70;99.90
51725;DHT22;37801;53.224;6.552;2023-03-23T06:42:10;9.60;99.90
51725;DHT22;37801;53.224;6.552;2023-03-23T06:44:36;9.70;99.90
51725;DHT22;37801;53.224;6.552;2023-03-23T06:47:03;9.80;99.90
51725;DHT22;37801;53.224;6.552;2023-03-23T06:49:29;9.60;99.90
51725;DHT22;37801;53.224;6.552;2023-03-23T06:51:55;9.50;99.90
51725;DHT22;37801;53.224;6.552;2023-03-23T06:54:22;9.40;99.90
51725;DHT22;37801;53.224;6.552;2023-03-23T06:56:47;9.60;99.90
51725;DHT22;37801;53.224;6.552;2023-03-23T06:59:13;9.60;99.90
51725;DHT22;37801;53.224;6.552;2023-03-23T07:01:39;9.40;99.90
51725;DHT22;37801;53.224;6.552;2023-03-23T07:04:05;9.60;99.90
51725;DHT22;37801;53.224;6.552;2023-03-23T07:06:31;9.40;99.90
51725;DHT22;37801;53.224;6.552;2023-03-23T07:08:57;9.40;99.90
51725;DHT22;37801;53.224;6.552;2023-03-23T07:11:23;9.10;99.90
51725;DHT22;37801;53.224;6.552;2023-03-23T07:13:50;9.30;99.90
51725;DHT22;37801;53.224;6.552;2023-03-23T07:16:16;9.40;99.90
51725;DHT22;37801;53.224;6.552;2023-03-23T07:18:43;9.30;99.90
51725;DHT22;37801;53.224;6.552;2023-03-23T07:21:09;9.40;99.90
51725;DHT22;37801;53.224;6.552;2023-03-23T07:23:35;9.40;99.90
51725;DHT22;37801;53.224;6.552;2023-03-23T07:26:01;9.30;99.90
51725;DHT22;37801;53.224;6.552;2023-03-23T07:28:29;9.60;99.90
51725;DHT22;37801;53.224;6.552;2023-03-23T07:30:55;9.50;99.90
51725;DHT22;37801;53.224;6.552;2023-03-23T07:33:21;9.60;99.90
51725;DHT22;37801;53.224;6.552;2023-03-23T07:35:47;9.60;99.90
51725;DHT22;37801;53.224;6.552;2023-03-23T07:38:13;9.60;99.90
51725;DHT22;37801;53.224;6.552;2023-03-23T07:40:39;9.70;99.90
51725;DHT22;37801;53.224;6.552;2023-03-23T07:43:06;9.60;99.90
51725;DHT22;37801;53.224;6.552;2023-03-23T07:45:33;9.50;99.90
51725;DHT22;37801;53.224;6.552;2023-03-23T07:47:59;9.60;99.90
51725;DHT22;37801;53.224;6.552;2023-03-23T07:50:25;9.80;99.90
51725;DHT22;37801;53.224;6.552;2023-03-23T07:52:54;9.90;99.90
51725;DHT22;37801;53.224;6.552;2023-03-23T07:55:21;9.90;99.90
51725;DHT22;37801;53.224;6.552;2023-03-23T07:57:47;9.90;99.90
51725;DHT22;37801;53.224;6.552;2023-03-23T08:00:15;9.80;99.90
51725;DHT22;37801;53.224;6.552;2023-03-23T08:02:44;10.00;99.90
51725;DHT22;37801;53.224;6.552;2023-03-23T08:05:10;10.00;99.90
51725;DHT22;37801;53.224;6.552;2023-03-23T08:07:39;9.80;99.90
51725;DHT22;37801;53.224;6.552;2023-03-23T08:10:06;9.80;99.90
51725;DHT22;37801;53.224;6.552;2023-03-23T08:12:36;10.10;99.90
51725;DHT22;37801;53.224;6.552;2023-03-23T08:15:03;10.00;99.90
51725;DHT22;37801;53.224;6.552;2023-03-23T08:17:29;9.80;99.90
51725;DHT22;37801;53.224;6.552;2023-03-23T08:19:55;9.90;99.90
51725;DHT22;37801;53.224;6.552;2023-03-23T08:22:21;9.80;99.90
51725;DHT22;37801;53.224;6.552;2023-03-23T08:24:47;9.90;99.90
51725;DHT22;37801;53.224;6.552;2023-03-23T08:27:13;10.00;99.90
51725;DHT22;37801;53.224;6.552;2023-03-23T08:29:38;9.90;99.90
51725;DHT22;37801;53.224;6.552;2023-03-23T08:32:04;9.90;99.90
51725;DHT22;37801;53.224;6.552;2023-03-23T08:34:30;9.90;99.90
51725;DHT22;37801;53.224;6.552;2023-03-23T08:36:56;10.00;99.90
51725;DHT22;37801;53.224;6.552;2023-03-23T08:39:22;9.90;99.90
51725;DHT22;37801;53.224;6.552;2023-03-23T08:41:49;10.10;99.90
51725;DHT22;37801;53.224;6.552;2023-03-23T08:44:15;9.80;99.90
51725;DHT22;37801;53.224;6.552;2023-03-23T08:46:41;9.90;99.90
51725;DHT22;37801;53.224;6.552;2023-03-23T08:49:07;10.10;99.90
51725;DHT22;37801;53.224;6.552;2023-03-23T08:51:33;10.00;99.90
51725;DHT22;37801;53.224;6.552;2023-03-23T08:53:59;10.00;99.90
51725;DHT22;37801;53.224;6.552;2023-03-23T08:56:25;9.90;99.90
51725;DHT22;37801;53.224;6.552;2023-03-23T08:58:51;10.00;99.90
51725;DHT22;37801;53.224;6.552;2023-03-23T09:01:17;9.90;99.90
51725;DHT22;37801;53.224;6.552;2023-03-23T09:03:43;10.20;99.90
51725;DHT22;37801;53.224;6.552;2023-03-23T09:06:09;10.00;99.90
51725;DHT22;37801;53.224;6.552;2023-03-23T09:08:38;10.10;99.90
51725;DHT22;37801;53.224;6.552;2023-03-23T09:11:06;10.30;99.90
51725;DHT22;37801;53.224;6.552;2023-03-23T09:13:34;10.40;99.90
51725;DHT22;37801;53.224;6.552;2023-03-23T09:16:00;10.20;99.90
51725;DHT22;37801;53.224;6.552;2023-03-23T09:18:27;10.20;99.90
51725;DHT22;37801;53.224;6.552;2023-03-23T09:20:54;10.20;99.90
51725;DHT22;37801;53.224;6.552;2023-03-23T09:23:20;10.30;99.90
51725;DHT22;37801;53.224;6.552;2023-03-23T09:25:46;10.20;99.90
51725;DHT22;37801;53.224;6.552;2023-03-23T09:28:13;10.30;99.90
51725;DHT22;37801;53.224;6.552;2023-03-23T09:30:39;10.20;99.90
51725;DHT22;37801;53.224;6.552;2023-03-23T09:33:06;10.20;99.90
51725;DHT22;37801;53.224;6.552;2023-03-23T09:35:34;10.20;99.90
51725;DHT22;37801;53.224;6.552;2023-03-23T09:38:02;10.20;99.90
51725;DHT22;37801;53.224;6.552;2023-03-23T09:48:31;9.80;99.90
51725;DHT22;37801;53.224;6.552;2023-03-23T09:51:26;9.80;99.90
51725;DHT22;37801;53.224;6.552;2023-03-23T09:53:58;9.80;99.90
51725;DHT22;37801;53.224;6.552;2023-03-23T09:56:27;9.80;99.90
51725;DHT22;37801;53.224;6.552;2023-03-23T09:59:18;9.80;99.90
51725;DHT22;37801;53.224;6.552;2023-03-23T10:01:49;9.80;99.90
51725;DHT22;37801;53.224;6.552;2023-03-23T10:07:21;9.80;99.90
51725;DHT22;37801;53.224;6.552;2023-03-23T10:10:00;9.90;99.90
51725;DHT22;37801;53.224;6.552;2023-03-23T10:12:36;9.90;99.90
51725;DHT22;37801;53.224;6.552;2023-03-23T10:15:17;10.00;99.90
51725;DHT22;37801;53.224;6.552;2023-03-23T10:17:54;10.00;99.90
51725;DHT22;37801;53.224;6.552;2023-03-23T10:25:52;10.10;99.90
51725;DHT22;37801;53.224;6.552;2023-03-23T10:28:35;10.00;99.90
51725;DHT22;37801;53.224;6.552;2023-03-23T10:31:03;10.00;99.90
51725;DHT22;37801;53.224;6.552;2023-03-23T10:33:36;10.00;99.90
51725;DHT22;37801;53.224;6.552;2023-03-23T10:36:14;10.00;99.90
51725;DHT22;37801;53.224;6.552;2023-03-23T10:38:47;10.00;99.90
51725;DHT22;37801;53.224;6.552;2023-03-23T10:41:17;10.00;99.90
51725;DHT22;37801;53.224;6.552;2023-03-23T10:43:44;9.90;99.90
51725;DHT22;37801;53.224;6.552;2023-03-23T10:49:01;9.90;99.90
51725;DHT22;37801;53.224;6.552;2023-03-23T10:51:36;9.90;99.90
51725;DHT22;37801;53.224;6.552;2023-03-23T10:54:04;9.90;99.90
51725;DHT22;37801;53.224;6.552;2023-03-23T10:56:43;9.90;99.90
51725;DHT22;37801;53.224;6.552;2023-03-23T10:59:25;10.10;99.90
51725;DHT22;37801;53.224;6.552;2023-03-23T11:01:55;10.20;99.90
51725;DHT22;37801;53.224;6.552;2023-03-23T11:04:23;10.20;99.90
51725;DHT22;37801;53.224;6.552;2023-03-23T11:06:52;10.30;99.90
51725;DHT22;37801;53.224;6.552;2023-03-23T11:09:20;10.40;99.90
51725;DHT22;37801;53.224;6.552;2023-03-23T11:11:52;10.50;99.90
51725;DHT22;37801;53.224;6.552;2023-03-23T11:16:56;10.60;99.90
51725;DHT22;37801;53.224;6.552;2023-03-23T11:19:31;10.60;99.90
51725;DHT22;37801;53.224;6.552;2023-03-23T11:24:40;10.70;99.90
51725;DHT22;37801;53.224;6.552;2023-03-23T11:27:07;10.90;99.90
51725;DHT22;37801;53.224;6.552;2023-03-23T11:29:35;11.10;99.90
51725;DHT22;37801;53.224;6.552;2023-03-23T11:32:04;11.00;99.90
51725;DHT22;37801;53.224;6.552;2023-03-23T11:34:42;11.20;99.90
51725;DHT22;37801;53.224;6.552;2023-03-23T11:40:15;11.20;99.90
51725;DHT22;37801;53.224;6.552;2023-03-23T11:42:59;11.10;99.90
51725;DHT22;37801;53.224;6.552;2023-03-23T11:45:33;11.10;99.90
51725;DHT22;37801;53.224;6.552;2023-03-23T11:58:12;11.00;99.90
51725;DHT22;37801;53.224;6.552;2023-03-23T12:00:56;11.00;99.90
51725;DHT22;37801;53.224;6.552;2023-03-23T12:06:10;11.20;99.90
51725;DHT22;37801;53.224;6.552;2023-03-23T12:08:58;11.30;99.90
51725;DHT22;37801;53.224;6.552;2023-03-23T12:11:29;11.50;99.90
51725;DHT22;37801;53.224;6.552;2023-03-23T12:16:57;11.70;99.90
51725;DHT22;37801;53.224;6.552;2023-03-23T12:30:55;11.80;99.90
51725;DHT22;37801;53.224;6.552;2023-03-23T12:44:39;11.70;99.90
51725;DHT22;37801;53.224;6.552;2023-03-23T12:49:56;11.70;99.90
51725;DHT22;37801;53.224;6.552;2023-03-23T12:56:08;11.80;99.90
51725;DHT22;37801;53.224;6.552;2023-03-23T12:58:21;11.90;99.90
51725;DHT22;37801;53.224;6.552;2023-03-23T13:01:10;11.80;93.10
51725;DHT22;37801;53.224;6.552;2023-03-23T13:03:59;11.80;89.50
51725;DHT22;37801;53.224;6.552;2023-03-23T13:06:45;11.80;56.40
51725;DHT22;37801;53.224;6.552;2023-03-23T13:11:54;11.90;82.20
51725;DHT22;37801;53.224;6.552;2023-03-23T13:17:38;12.00;68.30
51725;DHT22;37801;53.224;6.552;2023-03-23T13:23:08;12.00;45.70
51725;DHT22;37801;53.224;6.552;2023-03-23T13:28:31;12.10;72.10
51725;DHT22;37801;53.224;6.552;2023-03-23T13:31:21;12.20;90.90
51725;DHT22;37801;53.224;6.552;2023-03-23T13:33:52;12.20;98.10
51725;DHT22;37801;53.224;6.552;2023-03-23T13:36:27;12.20;92.50
51725;DHT22;37801;53.224;6.552;2023-03-23T13:38:53;12.20;78.90
51725;DHT22;37801;53.224;6.552;2023-03-23T13:41:20;12.30;71.30
51725;DHT22;37801;53.224;6.552;2023-03-23T13:43:47;12.30;77.30
51725;DHT22;37801;53.224;6.552;2023-03-23T13:48:47;12.30;92.80
51725;DHT22;37801;53.224;6.552;2023-03-23T13:56:55;12.30;92.70
51725;DHT22;37801;53.224;6.552;2023-03-23T13:59:46;12.30;84.80
51725;DHT22;37801;53.224;6.552;2023-03-23T14:02:38;12.40;81.80
51725;DHT22;37801;53.224;6.552;2023-03-23T14:05:34;12.40;51.10
51725;DHT22;37801;53.224;6.552;2023-03-23T14:08:10;12.50;66.80
51725;DHT22;37801;53.224;6.552;2023-03-23T14:10:37;12.60;76.70
51725;DHT22;37801;53.224;6.552;2023-03-23T14:13:09;12.60;42.30
51725;DHT22;37801;53.224;6.552;2023-03-23T14:16:00;12.60;60.10
51725;DHT22;37801;53.224;6.552;2023-03-23T14:18:39;12.70;63.30
51725;DHT22;37801;53.224;6.552;2023-03-23T14:21:12;12.70;51.70
51725;DHT22;37801;53.224;6.552;2023-03-23T14:23:39;12.80;24.80
51725;DHT22;37801;53.224;6.552;2023-03-23T14:26:11;12.80;32.80
51725;DHT22;37801;53.224;6.552;2023-03-23T14:28:42;12.80;23.40
51725;DHT22;37801;53.224;6.552;2023-03-23T14:31:22;12.70;32.30
51725;DHT22;37801;53.224;6.552;2023-03-23T14:33:49;12.70;54.30
51725;DHT22;37801;53.224;6.552;2023-03-23T14:36:28;12.70;35.80
51725;DHT22;37801;53.224;6.552;2023-03-23T14:41:47;12.80;39.00
51725;DHT22;37801;53.224;6.552;2023-03-23T14:44:17;12.80;39.80
51725;DHT22;37801;53.224;6.552;2023-03-23T14:46:44;12.80;58.60
51725;DHT22;37801;53.224;6.552;2023-03-23T14:49:15;12.80;54.50
51725;DHT22;37801;53.224;6.552;2023-03-23T14:51:53;12.80;4.30
51725;DHT22;37801;53.224;6.552;2023-03-23T14:54:25;12.90;18.20
51725;DHT22;37801;53.224;6.552;2023-03-23T14:56:52;12.80;22.90
51725;DHT22;37801;53.224;6.552;2023-03-23T14:59:18;12.80;42.80
51725;DHT22;37801;53.224;6.552;2023-03-23T15:01:46;12.70;23.20
51725;DHT22;37801;53.224;6.552;2023-03-23T15:04:21;12.70;25.20
51725;DHT22;37801;53.224;6.552;2023-03-23T15:07:03;12.60;22.50
51725;DHT22;37801;53.224;6.552;2023-03-23T15:09:31;12.50;20.00
51725;DHT22;37801;53.224;6.552;2023-03-23T15:12:00;12.50;30.50
51725;DHT22;37801;53.224;6.552;2023-03-23T15:16:56;12.50;7.80
51725;DHT22;37801;53.224;6.552;2023-03-23T15:19:32;12.50;18.30
51725;DHT22;37801;53.224;6.552;2023-03-23T15:22:16;12.50;37.50
51725;DHT22;37801;53.224;6.552;2023-03-23T15:24:43;12.50;14.30
51725;DHT22;37801;53.224;6.552;2023-03-23T15:29:50;12.40;26.50
51725;DHT22;37801;53.224;6.552;2023-03-23T15:32:28;12.40;27.70
51725;DHT22;37801;53.224;6.552;2023-03-23T15:34:56;12.30;23.10
51725;DHT22;37801;53.224;6.552;2023-03-23T15:37:27;12.30;18.80
51725;DHT22;37801;53.224;6.552;2023-03-23T15:39:55;12.30;16.50
51725;DHT22;37801;53.224;6.552;2023-03-23T15:42:25;12.30;1.00
51725;DHT22;37801;53.224;6.552;2023-03-23T15:45:22;12.30;1.00
51725;DHT22;37801;53.224;6.552;2023-03-23T15:47:49;12.20;8.50
51725;DHT22;37801;53.224;6.552;2023-03-23T15:52:53;12.20;16.70
51725;DHT22;37801;53.224;6.552;2023-03-23T15:55:24;12.20;1.00
51725;DHT22;37801;53.224;6.552;2023-03-23T15:57:51;12.20;1.00
51725;DHT22;37801;53.224;6.552;2023-03-23T16:00:18;12.20;15.60
51725;DHT22;37801;53.224;6.552;2023-03-23T16:02:46;12.10;2.70
51725;DHT22;37801;53.224;6.552;2023-03-23T16:05:13;12.10;14.90
51725;DHT22;37801;53.224;6.552;2023-03-23T16:07:39;12.10;1.00
51725;DHT22;37801;53.224;6.552;2023-03-23T16:10:06;12.10;8.90
51725;DHT22;37801;53.224;6.552;2023-03-23T16:12:32;12.00;1.70
51725;DHT22;37801;53.224;6.552;2023-03-23T16:14:58;12.00;10.30
51725;DHT22;37801;53.224;6.552;2023-03-23T16:17:24;12.00;18.20
51725;DHT22;37801;53.224;6.552;2023-03-23T16:19:50;11.90;8.50
51725;DHT22;37801;53.224;6.552;2023-03-23T16:22:16;11.90;14.20
51725;DHT22;37801;53.224;6.552;2023-03-23T16:24:42;11.90;5.00
51725;DHT22;37801;53.224;6.552;2023-03-23T16:27:12;11.90;19.00
51725;DHT22;37801;53.224;6.552;2023-03-23T16:29:38;11.80;17.00
51725;DHT22;37801;53.224;6.552;2023-03-23T16:32:04;11.80;18.60
51725;DHT22;37801;53.224;6.552;2023-03-23T16:34:30;11.80;31.80
51725;DHT22;37801;53.224;6.552;2023-03-23T16:36:58;11.80;26.70
51725;DHT22;37801;53.224;6.552;2023-03-23T16:39:24;11.80;29.80
51725;DHT22;37801;53.224;6.552;2023-03-23T16:41:49;11.80;27.80
51725;DHT22;37801;53.224;6.552;2023-03-23T16:44:15;11.80;27.20
51725;DHT22;37801;53.224;6.552;2023-03-23T16:46:41;11.80;24.60
51725;DHT22;37801;53.224;6.552;2023-03-23T16:49:07;11.80;28.90
51725;DHT22;37801;53.224;6.552;2023-03-23T16:51:32;11.70;25.20
51725;DHT22;37801;53.224;6.552;2023-03-23T16:53:58;11.70;26.40
51725;DHT22;37801;53.224;6.552;2023-03-23T16:56:24;11.70;30.40
51725;DHT22;37801;53.224;6.552;2023-03-23T16:58:50;11.70;33.30
51725;DHT22;37801;53.224;6.552;2023-03-23T17:01:15;11.60;32.50
51725;DHT22;37801;53.224;6.552;2023-03-23T17:03:41;11.60;27.00
51725;DHT22;37801;53.224;6.552;2023-03-23T17:06:07;11.60;29.80
51725;DHT22;37801;53.224;6.552;2023-03-23T17:08:33;11.60;32.70
51725;DHT22;37801;53.224;6.552;2023-03-23T17:10:59;11.60;29.10
51725;DHT22;37801;53.224;6.552;2023-03-23T17:13:25;11.60;25.00
51725;DHT22;37801;53.224;6.552;2023-03-23T17:15:54;11.50;26.40
51725;DHT22;37801;53.224;6.552;2023-03-23T17:18:22;11.50;31.80
51725;DHT22;37801;53.224;6.552;2023-03-23T17:20:48;11.50;36.10
51725;DHT22;37801;53.224;6.552;2023-03-23T17:23:14;11.50;40.30
51725;DHT22;37801;53.224;6.552;2023-03-23T17:25:43;11.40;32.20
51725;DHT22;37801;53.224;6.552;2023-03-23T17:28:10;11.40;30.20
51725;DHT22;37801;53.224;6.552;2023-03-23T17:30:39;11.40;42.50
51725;DHT22;37801;53.224;6.552;2023-03-23T17:33:05;11.40;42.50
51725;DHT22;37801;53.224;6.552;2023-03-23T17:35:31;11.30;40.00
51725;DHT22;37801;53.224;6.552;2023-03-23T17:37:57;11.30;43.30
51725;DHT22;37801;53.224;6.552;2023-03-23T17:40:23;11.20;38.70
51725;DHT22;37801;53.224;6.552;2023-03-23T17:42:49;11.30;40.40
51725;DHT22;37801;53.224;6.552;2023-03-23T17:45:15;11.20;40.70
51725;DHT22;37801;53.224;6.552;2023-03-23T17:47:41;11.20;41.60
51725;DHT22;37801;53.224;6.552;2023-03-23T17:50:07;11.20;44.10
51725;DHT22;37801;53.224;6.552;2023-03-23T17:52:33;11.20;49.40
51725;DHT22;37801;53.224;6.552;2023-03-23T17:54:59;11.20;44.90
51725;DHT22;37801;53.224;6.552;2023-03-23T17:57:25;11.10;39.70
51725;DHT22;37801;53.224;6.552;2023-03-23T17:59:51;11.10;40.50
51725;DHT22;37801;53.224;6.552;2023-03-23T18:02:17;11.10;47.30
51725;DHT22;37801;53.224;6.552;2023-03-23T18:04:44;11.00;58.00